createdAt,value
2023-01-10T00:00:07.265Z,37.27
2023-01-10T00:02:29.037Z,37.13
2023-01-10T00:04:31.432Z,37.92
2023-01-10T00:06:33.222Z,36.72
2023-01-10T00:08:35.231Z,36.93
2023-01-10T00:10:36.971Z,35.65
2023-01-10T00:12:57.550Z,39.05
2023-01-10T00:14:59.632Z,38.53
2023-01-10T00:17:02.157Z,37.65
2023-01-10T00:19:04.177Z,37.30
2023-01-10T00:21:09.513Z,36.60
2023-01-10T00:23:12.047Z,37.53
2023-01-10T00:25:14.230Z,37.33
2023-01-10T00:27:21.475Z,39.83
2023-01-10T00:29:26.014Z,38.05
2023-01-10T00:31:28.128Z,37.88
2023-01-10T00:33:32.053Z,38.58
2023-01-10T00:35:34.299Z,40.00
2023-01-10T00:37:36.000Z,38.70
2023-01-10T00:39:38.136Z,39.33
2023-01-10T00:41:58.793Z,38.83
2023-01-10T00:44:00.801Z,36.10
2023-01-10T00:46:05.659Z,36.33
2023-01-10T00:48:07.744Z,38.25
2023-01-10T00:50:10.371Z,37.75
2023-01-10T00:52:13.017Z,39.95
2023-01-10T00:54:15.124Z,36.95
2023-01-10T00:56:17.269Z,38.87
2023-01-10T00:58:18.981Z,38.63
2023-01-10T01:00:21.196Z,38.80
2023-01-10T01:02:22.993Z,38.92
2023-01-10T01:04:25.306Z,38.15
2023-01-10T01:06:27.145Z,37.15
2023-01-10T01:08:29.240Z,39.28
2023-01-10T01:10:31.222Z,39.53
2023-01-10T01:12:33.065Z,40.55
2023-01-10T01:14:35.302Z,40.50
2023-01-10T01:16:36.968Z,40.63
2023-01-10T01:18:39.014Z,37.97
2023-01-10T01:20:41.477Z,39.95
2023-01-10T01:22:43.636Z,40.53
2023-01-10T01:24:45.363Z,40.15
2023-01-10T01:26:47.567Z,39.30
2023-01-10T01:28:49.303Z,41.70
2023-01-10T01:30:51.497Z,41.13
2023-01-10T01:32:53.548Z,43.60
2023-01-10T01:34:55.771Z,40.17
2023-01-10T01:36:58.276Z,39.65
2023-01-10T01:39:00.411Z,42.17
2023-01-10T01:41:02.122Z,43.15
2023-01-10T01:43:04.200Z,43.73
2023-01-10T01:45:08.919Z,41.72
2023-01-10T01:47:26.793Z,43.35
2023-01-10T01:49:29.124Z,41.10
2023-01-10T01:51:31.101Z,42.00
2023-01-10T01:53:33.235Z,43.65
2023-01-10T01:55:35.542Z,42.80
2023-01-10T01:57:37.827Z,43.08
2023-01-10T01:59:42.105Z,40.92
2023-01-10T02:01:46.694Z,43.65
2023-01-10T02:03:50.381Z,41.25
2023-01-10T02:05:52.447Z,42.00
2023-01-10T02:07:55.525Z,41.60
2023-01-10T02:10:03.007Z,43.97
2023-01-10T02:12:05.347Z,43.97
2023-01-10T02:14:08.039Z,44.40
2023-01-10T02:18:12.033Z,43.58
2023-01-10T02:20:14.844Z,44.33
2023-01-10T02:22:28.216Z,45.88
2023-01-10T02:24:41.893Z,42.05
2023-01-10T02:26:59.103Z,46.45
2023-01-10T02:29:12.746Z,44.55
2023-01-10T02:31:14.904Z,45.00
2023-01-10T02:33:20.605Z,45.85
2023-01-10T02:35:39.918Z,44.80
2023-01-10T02:37:51.242Z,44.92
2023-01-10T02:40:03.764Z,44.75
2023-01-10T02:42:14.207Z,44.97
2023-01-10T02:44:18.158Z,46.50
2023-01-10T02:46:25.448Z,44.97
2023-01-10T02:48:27.344Z,44.72
2023-01-10T02:50:41.567Z,44.90
2023-01-10T02:52:43.323Z,44.22
2023-01-10T02:54:45.453Z,45.87
2023-01-10T02:57:06.210Z,45.75
2023-01-10T02:59:34.915Z,45.88
2023-01-10T03:01:42.130Z,42.45
2023-01-10T03:03:50.807Z,44.70
2023-01-10T03:06:07.782Z,44.78
2023-01-10T03:08:12.874Z,43.75
2023-01-10T03:10:16.661Z,45.13
2023-01-10T03:12:31.807Z,44.78
2023-01-10T03:14:34.146Z,43.35
2023-01-10T03:16:36.964Z,42.45
2023-01-10T03:18:48.660Z,43.63
2023-01-10T03:20:51.718Z,43.45
2023-01-10T03:22:55.729Z,43.45
2023-01-10T03:24:58.935Z,43.28
2023-01-10T03:27:09.224Z,44.17
2023-01-10T03:29:11.775Z,42.38
2023-01-10T03:31:15.923Z,43.30
2023-01-10T03:33:19.279Z,43.03
2023-01-10T03:35:22.395Z,43.00
2023-01-10T03:37:46.296Z,43.28
2023-01-10T03:40:08.582Z,44.58
2023-01-10T03:42:18.609Z,44.42
2023-01-10T03:44:43.466Z,43.08
2023-01-10T03:47:00.134Z,40.63
2023-01-10T03:49:03.834Z,41.50
2023-01-10T03:51:07.165Z,42.92
2023-01-10T03:53:10.813Z,43.17
2023-01-10T03:55:14.340Z,43.20
2023-01-10T03:57:17.789Z,42.88
2023-01-10T03:59:21.072Z,42.70
2023-01-10T04:01:23.216Z,42.47
2023-01-10T04:03:25.000Z,43.38
2023-01-10T04:05:27.086Z,44.47
2023-01-10T04:07:28.822Z,42.75
2023-01-10T04:09:31.183Z,42.60
2023-01-10T04:11:32.943Z,44.03
2023-01-10T04:13:35.628Z,45.13
2023-01-10T04:15:37.338Z,43.33
2023-01-10T04:17:39.531Z,43.40
2023-01-10T04:19:41.971Z,44.38
2023-01-10T04:21:44.078Z,44.08
2023-01-10T04:23:45.817Z,42.97
2023-01-10T04:25:48.230Z,44.03
2023-01-10T04:27:50.756Z,43.13
2023-01-10T04:29:53.293Z,42.90
2023-01-10T04:31:55.026Z,43.87
2023-01-10T04:33:57.145Z,42.90
2023-01-10T04:35:58.874Z,43.38
2023-01-10T04:38:00.897Z,42.33
2023-01-10T04:40:02.620Z,44.78
2023-01-10T04:42:04.715Z,42.83
2023-01-10T04:44:06.569Z,45.65
2023-01-10T04:46:08.813Z,45.67
2023-01-10T04:48:10.542Z,43.05
2023-01-10T04:50:12.594Z,42.72
2023-01-10T04:52:14.254Z,42.58
2023-01-10T04:54:19.534Z,44.20
2023-01-10T04:56:22.033Z,45.22
2023-01-10T04:58:24.134Z,45.25
2023-01-10T05:00:25.990Z,45.65
2023-01-10T05:02:28.133Z,44.95
2023-01-10T05:04:29.874Z,45.08
2023-01-10T05:06:32.385Z,45.87
2023-01-10T05:08:34.096Z,44.00
2023-01-10T05:10:36.191Z,46.60
2023-01-10T05:12:38.040Z,45.22
2023-01-10T05:14:40.065Z,41.83
2023-01-10T05:16:41.849Z,42.45
2023-01-10T05:18:44.143Z,41.58
2023-01-10T05:20:45.788Z,42.03
2023-01-10T05:22:49.298Z,43.10
2023-01-10T05:24:51.046Z,42.97
2023-01-10T05:26:53.379Z,42.33
2023-01-10T05:28:55.058Z,43.55
2023-01-10T05:30:57.056Z,42.25
2023-01-10T05:32:58.708Z,41.92
2023-01-10T05:35:00.924Z,44.73
2023-01-10T05:37:02.590Z,43.97
2023-01-10T05:39:04.657Z,43.65
2023-01-10T05:41:06.621Z,44.40
2023-01-10T05:43:08.663Z,44.25
2023-01-10T05:45:10.650Z,43.05
2023-01-10T05:47:12.650Z,43.88
2023-01-10T05:49:14.414Z,45.40
2023-01-10T05:51:16.475Z,42.67
2023-01-10T05:53:18.766Z,42.78
2023-01-10T05:55:20.796Z,42.75
2023-01-10T05:57:24.612Z,44.63
2023-01-10T05:59:28.455Z,43.00
2023-01-10T06:01:30.482Z,44.45
2023-01-10T06:03:32.504Z,43.97
2023-01-10T06:05:34.198Z,44.13
2023-01-10T06:07:37.001Z,43.83
2023-01-10T06:09:38.689Z,41.72
2023-01-10T06:11:40.709Z,44.38
2023-01-10T06:13:42.388Z,41.80
2023-01-10T06:15:44.486Z,46.17
2023-01-10T06:17:46.288Z,42.92
2023-01-10T06:19:48.528Z,46.23
2023-01-10T06:21:50.297Z,44.70
2023-01-10T06:23:52.367Z,43.33
2023-01-10T06:25:54.080Z,45.45
2023-01-10T06:27:56.321Z,45.38
2023-01-10T06:29:59.653Z,44.20
2023-01-10T06:32:01.702Z,45.88
2023-01-10T06:34:03.443Z,45.50
2023-01-10T06:36:05.733Z,43.20
2023-01-10T06:38:07.728Z,44.55
2023-01-10T06:40:10.374Z,46.60
2023-01-10T06:42:12.391Z,45.72
2023-01-10T06:44:14.521Z,45.22
2023-01-10T06:46:18.178Z,45.55
2023-01-10T06:48:20.266Z,44.13
2023-01-10T06:50:22.860Z,44.60
2023-01-10T06:52:24.984Z,45.67
2023-01-10T06:54:27.266Z,43.30
2023-01-10T06:56:29.349Z,46.17
2023-01-10T06:58:31.211Z,41.80
2023-01-10T07:00:33.693Z,44.10
2023-01-10T07:02:35.639Z,44.00
2023-01-10T07:04:38.243Z,43.75
2023-01-10T07:06:40.180Z,45.30
2023-01-10T07:08:43.796Z,45.40
2023-01-10T07:10:45.600Z,44.67
2023-01-10T07:12:47.589Z,44.10
2023-01-10T07:14:49.286Z,45.95
2023-01-10T07:16:51.361Z,44.47
2023-01-10T07:18:53.134Z,43.33
2023-01-10T07:20:55.671Z,45.65
2023-01-10T07:22:58.476Z,45.45
2023-01-10T07:25:00.490Z,43.78
2023-01-10T07:27:03.409Z,44.17
2023-01-10T07:29:05.508Z,45.80
2023-01-10T07:31:07.300Z,45.78
2023-01-10T07:33:09.415Z,43.95
2023-01-10T07:35:11.168Z,45.80
2023-01-10T07:37:13.365Z,45.72
2023-01-10T07:39:15.084Z,45.20
2023-01-10T07:41:17.184Z,45.77
2023-01-10T07:43:18.871Z,46.05
2023-01-10T07:45:21.060Z,44.40
2023-01-10T07:47:22.709Z,45.67
2023-01-10T07:49:24.770Z,44.90
2023-01-10T07:51:26.539Z,45.40
2023-01-10T07:53:28.971Z,42.90
2023-01-10T07:55:30.667Z,45.60
2023-01-10T07:57:32.696Z,43.92
2023-01-10T07:59:34.439Z,44.20
2023-01-10T08:01:36.483Z,44.23
2023-01-10T08:03:38.404Z,43.22
2023-01-10T08:05:40.512Z,42.97
2023-01-10T08:07:42.190Z,41.28
2023-01-10T08:09:44.286Z,40.70
2023-01-10T08:11:45.940Z,40.53
2023-01-10T08:13:48.001Z,40.13
2023-01-10T08:15:52.849Z,39.28
2023-01-10T08:17:55.372Z,38.42
2023-01-10T08:19:57.079Z,39.80
2023-01-10T08:22:00.759Z,38.47
2023-01-10T08:24:02.498Z,39.40
2023-01-10T08:26:05.825Z,36.70
2023-01-10T08:28:07.702Z,37.15
2023-01-10T08:30:10.063Z,38.30
2023-01-10T08:32:11.992Z,38.78
2023-01-10T08:34:14.313Z,36.55
2023-01-10T08:36:19.829Z,37.67
2023-01-10T08:38:21.873Z,34.20
2023-01-10T08:40:23.623Z,34.50
2023-01-10T08:42:25.720Z,35.50
2023-01-10T08:44:27.556Z,35.13
2023-01-10T08:46:29.940Z,34.90
2023-01-10T08:48:31.725Z,33.40
2023-01-10T08:50:33.831Z,36.08
2023-01-10T08:52:35.683Z,36.60
2023-01-10T08:54:37.865Z,36.90
2023-01-10T08:56:40.322Z,36.47
2023-01-10T08:58:42.497Z,34.60
2023-01-10T09:00:45.151Z,35.60
2023-01-10T09:04:49.170Z,33.25
2023-01-10T09:06:51.179Z,34.63
2023-01-10T09:08:52.901Z,34.38
2023-01-10T09:10:54.984Z,34.70
2023-01-10T09:13:01.772Z,33.78
2023-01-10T09:15:04.214Z,31.90
2023-01-10T09:17:05.930Z,34.03
2023-01-10T09:19:07.995Z,33.07
2023-01-10T09:21:09.706Z,34.45
2023-01-10T09:23:17.456Z,33.57
2023-01-10T09:25:19.212Z,33.78
2023-01-10T09:27:21.393Z,33.23
2023-01-10T09:29:23.405Z,40.53
2023-01-10T09:31:25.591Z,31.95
2023-01-10T09:33:34.980Z,30.77
2023-01-10T09:35:43.759Z,31.33
2023-01-10T09:37:45.634Z,32.83
2023-01-10T09:39:47.888Z,32.10
2023-01-10T09:41:56.236Z,32.13
2023-01-10T09:44:01.561Z,31.13
2023-01-10T09:46:04.310Z,32.65
2023-01-10T09:48:09.244Z,33.47
2023-01-10T09:50:20.196Z,32.00
2023-01-10T09:52:23.870Z,31.15
2023-01-10T09:54:28.325Z,33.38
2023-01-10T09:56:31.122Z,32.20
2023-01-10T09:58:35.197Z,32.90
2023-01-10T10:00:42.910Z,32.67
2023-01-10T10:02:47.721Z,32.50
2023-01-10T10:04:57.791Z,32.17
2023-01-10T10:06:59.515Z,32.33
2023-01-10T10:09:03.615Z,33.70
2023-01-10T10:11:25.430Z,30.92
2023-01-10T10:13:36.824Z,29.20
2023-01-10T10:15:53.620Z,32.80
2023-01-10T10:18:16.831Z,32.20
2023-01-10T10:20:34.410Z,32.22
2023-01-10T10:22:54.015Z,30.35
2023-01-10T10:25:14.620Z,32.60
2023-01-10T10:27:36.945Z,31.48
2023-01-10T10:29:44.838Z,29.48
2023-01-10T10:32:06.545Z,31.73
2023-01-10T10:34:11.040Z,31.48
2023-01-10T10:36:18.929Z,31.58
2023-01-10T10:38:24.905Z,33.83
2023-01-10T10:40:29.879Z,34.05
2023-01-10T10:42:41.698Z,32.72
2023-01-10T10:44:46.751Z,32.25
2023-01-10T10:46:48.477Z,32.90
2023-01-10T10:48:53.538Z,32.00
2023-01-10T10:51:07.306Z,32.47
2023-01-10T10:53:09.896Z,33.20
2023-01-10T10:55:16.593Z,31.65
2023-01-10T10:57:19.379Z,31.73
2023-01-10T10:59:21.773Z,33.47
2023-01-10T11:01:26.374Z,32.17
2023-01-10T11:03:40.359Z,32.80
2023-01-10T11:05:44.721Z,34.05
2023-01-10T11:07:46.519Z,33.20
2023-01-10T11:09:59.994Z,33.53
2023-01-10T11:12:03.163Z,32.55
2023-01-10T11:14:06.835Z,33.80
2023-01-10T11:16:08.764Z,32.85
2023-01-10T11:18:12.470Z,31.27
2023-01-10T11:20:16.097Z,34.10
2023-01-10T11:22:17.827Z,32.50
2023-01-10T11:24:25.688Z,33.83
2023-01-10T11:26:29.939Z,32.72
2023-01-10T11:28:33.584Z,33.53
2023-01-10T11:30:36.867Z,33.45
2023-01-10T11:32:40.394Z,35.03
2023-01-10T11:34:50.494Z,33.05
2023-01-10T11:37:06.128Z,32.00
2023-01-10T11:39:14.355Z,32.47
2023-01-10T11:41:19.514Z,31.08
2023-01-10T11:43:38.392Z,31.27
2023-01-10T11:45:41.890Z,29.90
2023-01-10T11:47:45.725Z,30.58
2023-01-10T11:49:48.914Z,30.95
2023-01-10T11:51:51.979Z,29.80
2023-01-10T11:54:04.139Z,31.05
2023-01-10T11:56:07.001Z,30.98
2023-01-10T11:58:10.679Z,30.17
2023-01-10T12:00:12.971Z,30.48
2023-01-10T12:02:21.108Z,29.70
2023-01-10T12:04:23.482Z,30.77
2023-01-10T12:06:25.532Z,31.70
2023-01-10T12:08:34.666Z,27.23
2023-01-10T12:10:36.420Z,28.80
2023-01-10T12:12:38.915Z,27.63
2023-01-10T12:14:40.583Z,28.93
2023-01-10T12:16:42.278Z,28.13
2023-01-10T12:18:44.727Z,28.97
2023-01-10T12:20:48.164Z,28.70
2023-01-10T12:22:52.905Z,29.42
2023-01-10T12:24:55.760Z,30.90
2023-01-10T12:26:59.964Z,30.88
2023-01-10T12:29:11.751Z,31.25
2023-01-10T12:31:15.360Z,31.58
2023-01-10T12:33:23.795Z,32.90
2023-01-10T12:35:33.712Z,31.85
2023-01-10T12:37:45.658Z,32.13
2023-01-10T12:39:52.260Z,31.35
2023-01-10T12:42:15.744Z,30.73
2023-01-10T12:44:29.058Z,31.15
2023-01-10T12:47:04.654Z,31.35
2023-01-10T12:49:06.951Z,31.38
2023-01-10T12:51:11.281Z,30.85
2023-01-10T12:53:33.679Z,29.02
2023-01-10T12:55:43.065Z,29.15
2023-01-10T12:57:51.787Z,29.75
2023-01-10T12:59:55.048Z,28.90
2023-01-10T13:02:02.202Z,30.92
2023-01-10T13:04:06.985Z,31.33
2023-01-10T13:06:11.867Z,31.33
2023-01-10T13:08:15.796Z,31.75
2023-01-10T13:10:20.275Z,32.38
2023-01-10T13:12:24.418Z,32.67
2023-01-10T13:14:41.943Z,33.25
2023-01-10T13:16:50.425Z,32.90
2023-01-10T13:19:01.633Z,32.35
2023-01-10T13:21:15.643Z,31.90
2023-01-10T13:23:23.017Z,30.80
2023-01-10T13:25:35.993Z,31.98
2023-01-10T13:29:43.334Z,31.02
2023-01-10T13:31:45.534Z,31.45
2023-01-10T13:33:50.066Z,32.20
2023-01-10T13:35:53.037Z,31.50
2023-01-10T13:37:57.020Z,31.25
2023-01-10T13:40:00.408Z,30.15
2023-01-10T13:42:25.096Z,31.83
2023-01-10T13:44:52.045Z,29.75
2023-01-10T13:46:54.393Z,31.85
2023-01-10T13:49:00.402Z,30.30
2023-01-10T13:51:21.005Z,30.20
2023-01-10T13:53:28.467Z,30.27
2023-01-10T13:55:39.502Z,29.85
2023-01-10T13:57:51.722Z,28.55
2023-01-10T14:00:20.463Z,28.15
2023-01-10T14:02:29.765Z,29.35
2023-01-10T14:04:34.259Z,28.33
2023-01-10T14:06:41.284Z,30.48
2023-01-10T14:08:51.427Z,29.42
2023-01-10T14:11:07.433Z,27.67
2023-01-10T14:13:16.427Z,28.40
2023-01-10T14:15:34.359Z,29.35
2023-01-10T14:17:37.281Z,28.17
2023-01-10T14:19:39.887Z,26.92
2023-01-10T14:21:45.388Z,27.02
2023-01-10T14:23:51.567Z,26.73
2023-01-10T14:25:54.486Z,27.50
2023-01-10T14:27:58.595Z,25.85
2023-01-10T14:30:01.227Z,26.17
2023-01-10T14:32:18.832Z,24.90
2023-01-10T14:34:21.976Z,24.92
2023-01-10T14:36:25.668Z,25.92
2023-01-10T14:38:28.708Z,25.63
2023-01-10T14:40:30.743Z,24.95
2023-01-10T14:42:34.838Z,24.60
2023-01-10T14:44:50.905Z,23.85
2023-01-10T14:46:56.641Z,24.83
2023-01-10T14:49:00.980Z,25.33
2023-01-10T14:51:35.152Z,24.98
2023-01-10T14:53:37.162Z,23.33
2023-01-10T14:55:42.729Z,22.23
2023-01-10T14:57:58.484Z,23.95
2023-01-10T15:00:06.462Z,23.15
2023-01-10T15:02:21.795Z,22.85
2023-01-10T15:04:25.565Z,22.25
2023-01-10T15:06:27.808Z,22.83
2023-01-10T15:08:30.739Z,23.38
2023-01-10T15:10:35.249Z,22.80
2023-01-10T15:12:37.326Z,21.70
2023-01-10T15:14:39.623Z,22.38
2023-01-10T15:16:41.800Z,22.40
2023-01-10T15:18:45.758Z,22.60
2023-01-10T15:20:48.314Z,23.13
2023-01-10T15:22:55.438Z,23.48
2023-01-10T15:25:01.038Z,23.58
2023-01-10T15:27:04.507Z,22.20
2023-01-10T15:29:13.537Z,23.75
2023-01-10T15:31:19.129Z,23.38
2023-01-10T15:33:26.753Z,22.23
2023-01-10T15:35:36.212Z,24.13
2023-01-10T15:37:41.019Z,23.50
2023-01-10T15:39:46.016Z,23.48
2023-01-10T15:41:48.068Z,24.50
2023-01-10T15:43:52.072Z,25.63
2023-01-10T15:45:55.881Z,23.20
2023-01-10T15:48:03.800Z,25.13
2023-01-10T15:50:32.159Z,25.23
2023-01-10T15:52:34.211Z,25.92
2023-01-10T15:54:36.519Z,24.70
2023-01-10T15:56:40.633Z,26.60
2023-01-10T15:58:42.952Z,25.73
2023-01-10T16:00:45.982Z,27.75
2023-01-10T16:02:50.510Z,27.50
2023-01-10T16:04:56.321Z,29.08
2023-01-10T16:07:06.263Z,28.95
2023-01-10T16:09:08.937Z,28.92
2023-01-10T16:13:28.692Z,29.65
2023-01-10T16:15:31.819Z,29.08
2023-01-10T16:17:33.591Z,29.92
2023-01-10T16:19:35.997Z,29.02
2023-01-10T16:21:42.522Z,30.97
2023-01-10T16:23:46.643Z,30.77
2023-01-10T16:25:53.455Z,30.33
2023-01-10T16:27:56.422Z,28.55
2023-01-10T16:29:58.156Z,32.85
2023-01-10T16:32:00.192Z,29.43
2023-01-10T16:34:01.831Z,30.13
2023-01-10T16:36:04.413Z,31.05
2023-01-10T16:38:06.060Z,29.63
2023-01-10T16:40:16.061Z,31.17
2023-01-10T16:42:36.715Z,31.27
2023-01-10T16:44:38.763Z,31.85
2023-01-10T16:46:40.492Z,30.38
2023-01-10T16:48:42.595Z,30.03
2023-01-10T16:50:44.924Z,32.42
2023-01-10T16:52:46.934Z,31.50
2023-01-10T16:54:48.712Z,31.60
2023-01-10T16:56:50.797Z,31.10
2023-01-10T16:59:09.734Z,31.67
2023-01-10T17:01:17.986Z,32.75
2023-01-10T17:03:26.180Z,31.85
2023-01-10T17:05:29.429Z,31.40
2023-01-10T17:07:31.163Z,31.08
2023-01-10T17:09:33.817Z,31.25
2023-01-10T17:11:37.554Z,31.60
2023-01-10T17:13:41.390Z,31.45
2023-01-10T17:15:43.243Z,32.85
2023-01-10T17:17:45.262Z,33.45
2023-01-10T17:19:47.777Z,32.20
2023-01-10T17:21:50.037Z,31.52
2023-01-10T17:23:51.782Z,37.63
2023-01-10T17:26:01.019Z,34.25
2023-01-10T17:28:02.735Z,33.90
2023-01-10T17:30:05.069Z,33.33
2023-01-10T17:32:08.385Z,33.33
2023-01-10T17:34:10.570Z,31.55
2023-01-10T17:36:12.310Z,32.45
2023-01-10T17:38:16.432Z,32.25
2023-01-10T17:40:18.231Z,32.17
2023-01-10T17:42:20.311Z,32.63
2023-01-10T17:44:22.172Z,30.42
2023-01-10T17:46:24.881Z,33.30
2023-01-10T17:48:26.621Z,31.38
2023-01-10T17:50:28.630Z,31.53
2023-01-10T17:52:30.310Z,31.88
2023-01-10T17:54:36.313Z,32.95
2023-01-10T17:56:38.009Z,31.45
2023-01-10T17:58:40.130Z,35.20
2023-01-10T18:00:42.041Z,32.50
2023-01-10T18:02:43.756Z,32.35
2023-01-10T18:04:45.792Z,32.27
2023-01-10T18:06:47.537Z,30.77
2023-01-10T18:08:49.589Z,30.80
2023-01-10T18:10:51.395Z,31.33
2023-01-10T18:12:53.428Z,30.48
2023-01-10T18:14:55.145Z,30.50
2023-01-10T18:16:57.242Z,31.23
2023-01-10T18:18:59.296Z,30.08
2023-01-10T18:21:03.979Z,28.83
2023-01-10T18:23:21.183Z,29.30
2023-01-10T18:25:24.553Z,29.77
2023-01-10T18:29:28.376Z,29.02
2023-01-10T18:31:30.088Z,28.90
2023-01-10T18:33:32.252Z,29.73
2023-01-10T18:35:34.005Z,28.10
2023-01-10T18:37:35.772Z,28.73
2023-01-10T18:39:37.922Z,29.17
2023-01-10T18:41:39.642Z,28.52
2023-01-10T18:43:41.708Z,28.57
2023-01-10T18:45:44.343Z,27.48
2023-01-10T18:47:50.220Z,29.65
2023-01-10T18:49:51.912Z,29.50
2023-01-10T18:51:54.070Z,28.73
2023-01-10T18:53:55.895Z,29.13
2023-01-10T18:56:01.932Z,29.83
2023-01-10T18:58:03.609Z,29.52
2023-01-10T19:00:06.447Z,31.27
2023-01-10T19:02:10.380Z,31.83
2023-01-10T19:04:12.483Z,30.27
2023-01-10T19:06:16.712Z,39.38
2023-01-10T19:08:18.926Z,35.58
2023-01-10T19:10:20.804Z,33.60
2023-01-10T19:12:22.857Z,31.90
2023-01-10T19:14:24.621Z,29.88
2023-01-10T19:16:29.245Z,29.55
2023-01-10T19:18:30.985Z,29.63
2023-01-10T19:20:32.729Z,31.63
2023-01-10T19:22:34.926Z,29.73
2023-01-10T19:24:37.879Z,32.05
2023-01-10T19:26:39.916Z,30.33
2023-01-10T19:28:42.208Z,29.50
2023-01-10T19:30:46.917Z,33.28
2023-01-10T19:32:51.597Z,31.05
2023-01-10T19:34:53.364Z,30.13
2023-01-10T19:36:55.432Z,31.13
2023-01-10T19:38:58.395Z,31.48
2023-01-10T19:41:00.528Z,30.42
2023-01-10T19:43:03.176Z,32.60
2023-01-10T19:47:07.026Z,28.10
2023-01-10T19:49:10.898Z,30.73
2023-01-10T19:51:13.261Z,28.88
2023-01-10T19:53:15.056Z,28.67
2023-01-10T19:55:17.151Z,32.57
2023-01-10T19:57:18.856Z,31.23
2023-01-10T19:59:21.002Z,30.00
2023-01-10T20:01:23.643Z,31.73
2023-01-10T20:03:25.497Z,37.05
2023-01-10T20:05:27.673Z,31.98
2023-01-10T20:07:29.577Z,35.22
2023-01-10T20:09:33.519Z,34.10
2023-01-10T20:11:38.182Z,35.28
2023-01-10T20:13:49.271Z,36.80
2023-01-10T20:15:51.099Z,38.20
2023-01-10T20:17:53.181Z,36.88
2023-01-10T20:19:55.452Z,38.42
2023-01-10T20:21:57.595Z,37.33
2023-01-10T20:23:59.286Z,36.65
2023-01-10T20:26:22.127Z,36.03
2023-01-10T20:28:24.068Z,38.47
2023-01-10T20:30:26.171Z,37.50
2023-01-10T20:32:27.920Z,39.20
2023-01-10T20:34:30.074Z,39.37
2023-01-10T20:36:31.831Z,39.55
2023-01-10T20:38:35.050Z,40.30
2023-01-10T20:40:40.403Z,43.88
2023-01-10T20:42:42.403Z,45.83
2023-01-10T20:44:44.052Z,41.72
2023-01-10T20:46:46.163Z,41.95
2023-01-10T20:48:48.243Z,44.33
2023-01-10T20:50:50.646Z,45.83
2023-01-10T20:52:52.738Z,44.95
2023-01-10T20:54:54.804Z,45.72
2023-01-10T20:56:56.520Z,49.75
2023-01-10T20:58:58.884Z,46.03
2023-01-10T21:01:00.706Z,47.45
2023-01-10T21:03:02.479Z,47.53
2023-01-10T21:05:04.698Z,47.85
2023-01-10T21:07:06.895Z,45.67
2023-01-10T21:09:09.633Z,49.53
2023-01-10T21:11:12.492Z,48.58
2023-01-10T21:13:14.486Z,48.25
2023-01-10T21:15:16.592Z,46.20
2023-01-10T21:17:18.369Z,49.38
2023-01-10T21:19:20.689Z,48.17
2023-01-10T21:21:22.786Z,46.72
2023-01-10T21:23:25.616Z,44.55
2023-01-10T21:25:27.377Z,46.05
2023-01-10T21:27:31.356Z,44.58
2023-01-10T21:29:33.122Z,45.50
2023-01-10T21:31:35.262Z,49.27
2023-01-10T21:33:37.384Z,45.78
2023-01-10T21:35:39.787Z,43.10
2023-01-10T21:37:41.500Z,42.87
2023-01-10T21:39:43.547Z,41.47
2023-01-10T21:42:04.240Z,41.80
2023-01-10T21:44:07.099Z,43.58
2023-01-10T21:46:08.819Z,43.28
2023-01-10T21:48:10.868Z,42.45
2023-01-10T21:50:12.975Z,43.45
2023-01-10T21:52:15.033Z,42.22
2023-01-10T21:54:16.773Z,40.67
2023-01-10T21:56:18.910Z,40.42
2023-01-10T21:58:20.677Z,40.50
2023-01-10T22:00:22.960Z,39.45
2023-01-10T22:02:27.361Z,39.65
2023-01-10T22:04:29.540Z,40.13
2023-01-10T22:06:31.327Z,41.53
2023-01-10T22:08:33.400Z,41.15
2023-01-10T22:10:35.090Z,39.88
2023-01-10T22:12:37.274Z,40.03
2023-01-10T22:14:38.962Z,39.15
2023-01-10T22:16:41.030Z,39.83
2023-01-10T22:18:44.785Z,38.85
2023-01-10T22:20:47.609Z,38.33
2023-01-10T22:22:49.333Z,38.97
2023-01-10T22:24:51.395Z,36.73
2023-01-10T22:26:54.933Z,36.95
2023-01-10T22:28:56.933Z,36.67
2023-01-10T22:30:58.743Z,38.67
2023-01-10T22:33:00.423Z,35.53
2023-01-10T22:35:02.528Z,36.93
2023-01-10T22:37:04.422Z,36.78
2023-01-10T22:39:07.438Z,36.43
2023-01-10T22:41:10.568Z,38.47
2023-01-10T22:43:12.468Z,38.10
2023-01-10T22:45:14.517Z,36.85
2023-01-10T22:47:16.187Z,35.97
2023-01-10T22:49:18.432Z,37.73
2023-01-10T22:51:21.038Z,36.03
2023-01-10T22:55:24.825Z,36.60
2023-01-10T22:57:28.713Z,36.85
2023-01-10T22:59:33.360Z,36.88
2023-01-10T23:01:35.394Z,37.63
2023-01-10T23:03:37.150Z,37.10
2023-01-10T23:05:38.816Z,36.38
2023-01-10T23:07:40.877Z,37.25
2023-01-10T23:09:42.784Z,38.63
2023-01-10T23:11:44.768Z,37.88
2023-01-10T23:13:46.819Z,44.35
2023-01-10T23:15:58.830Z,39.42
2023-01-10T23:18:00.599Z,36.70
2023-01-10T23:20:03.599Z,33.88
2023-01-10T23:22:05.334Z,36.67
2023-01-10T23:24:07.642Z,34.87
2023-01-10T23:26:10.978Z,33.72
2023-01-10T23:28:13.028Z,33.30
2023-01-10T23:30:14.929Z,34.00
2023-01-10T23:32:16.962Z,30.58
2023-01-10T23:34:18.838Z,29.70
2023-01-10T23:36:22.088Z,29.77
2023-01-10T23:40:25.508Z,27.05
2023-01-10T23:42:27.736Z,27.77
2023-01-10T23:44:30.763Z,27.88
2023-01-10T23:46:32.937Z,31.08
2023-01-10T23:48:34.957Z,29.73
2023-01-10T23:50:37.319Z,32.95
2023-01-10T23:52:39.064Z,27.50
2023-01-10T23:54:41.094Z,29.37
2023-01-10T23:56:43.034Z,29.33
2023-01-10T23:58:45.075Z,29.15
